createdAt,value
2018-05-13T00:01:27.763Z,4.90
2018-05-13T00:03:56.701Z,5.73
2018-05-13T00:06:25.649Z,4.73
2018-05-13T00:08:54.646Z,4.77
2018-05-13T00:11:23.603Z,4.90
2018-05-13T00:13:52.522Z,4.10
2018-05-13T00:16:21.460Z,5.10
2018-05-13T00:18:50.448Z,4.80
2018-05-13T00:21:19.392Z,4.80
2018-05-13T00:23:48.305Z,4.83
2018-05-13T00:26:17.270Z,4.83
2018-05-13T00:28:46.168Z,4.40
2018-05-13T00:31:15.090Z,4.90
2018-05-13T00:33:44.107Z,4.43
2018-05-13T00:36:13.024Z,4.43
2018-05-13T00:38:41.938Z,4.40
2018-05-13T00:41:10.927Z,5.43
2018-05-13T00:43:39.826Z,4.83
2018-05-13T00:46:08.764Z,5.27
2018-05-13T00:48:37.703Z,4.47
2018-05-13T00:51:06.621Z,5.23
2018-05-13T00:53:35.603Z,4.63
2018-05-13T00:56:04.800Z,4.27
2018-05-13T00:58:33.718Z,4.53
2018-05-13T01:01:02.632Z,4.17
2018-05-13T01:03:31.602Z,4.50
2018-05-13T01:06:00.495Z,4.73
2018-05-13T01:08:29.380Z,4.87
2018-05-13T01:10:58.443Z,4.50
2018-05-13T01:13:27.357Z,5.00
2018-05-13T01:15:56.237Z,4.20
2018-05-13T01:18:25.202Z,4.57
2018-05-13T01:20:54.151Z,4.43
2018-05-13T01:23:23.070Z,4.27
2018-05-13T01:25:52.013Z,4.77
2018-05-13T01:28:20.962Z,4.60
2018-05-13T01:30:49.964Z,4.17
2018-05-13T01:33:18.940Z,4.47
2018-05-13T01:35:47.856Z,4.10
2018-05-13T01:38:16.758Z,4.40
2018-05-13T01:40:45.729Z,4.80
2018-05-13T01:43:14.636Z,4.67
2018-05-13T01:45:43.561Z,4.43
2018-05-13T01:48:12.502Z,4.37
2018-05-13T01:50:41.459Z,5.10
2018-05-13T01:53:10.362Z,4.67
2018-05-13T01:55:39.341Z,5.07
2018-05-13T01:58:08.269Z,4.73
2018-05-13T02:00:37.264Z,4.73
2018-05-13T02:03:06.243Z,5.07
2018-05-13T02:05:35.190Z,4.63
2018-05-13T02:08:04.081Z,4.50
2018-05-13T02:10:33.035Z,4.87
2018-05-13T02:13:01.945Z,4.90
2018-05-13T02:15:30.863Z,5.53
2018-05-13T02:17:59.898Z,4.80
2018-05-13T02:20:28.767Z,4.93
2018-05-13T02:22:57.705Z,4.43
2018-05-13T02:25:26.639Z,4.17
2018-05-13T02:27:55.539Z,4.70
2018-05-13T02:30:24.418Z,5.17
2018-05-13T02:32:53.368Z,4.57
2018-05-13T02:35:22.252Z,4.23
2018-05-13T02:37:51.154Z,4.80
2018-05-13T02:40:20.103Z,4.80
2018-05-13T02:42:49.013Z,4.23
2018-05-13T02:45:18.003Z,4.83
2018-05-13T02:47:46.978Z,4.50
2018-05-13T02:50:15.904Z,4.50
2018-05-13T02:52:44.795Z,4.80
2018-05-13T02:55:13.752Z,4.63
2018-05-13T02:57:42.649Z,4.70
2018-05-13T03:00:11.656Z,3.93
2018-05-13T03:02:40.623Z,4.77
2018-05-13T03:05:09.533Z,4.40
2018-05-13T03:07:38.420Z,4.13
2018-05-13T03:10:07.383Z,4.83
2018-05-13T03:12:36.262Z,4.37
2018-05-13T03:15:05.159Z,4.47
2018-05-13T03:17:34.142Z,4.90
2018-05-13T03:20:03.057Z,4.60
2018-05-13T03:22:32.066Z,4.63
2018-05-13T03:25:01.005Z,4.83
2018-05-13T03:27:29.939Z,5.30
2018-05-13T03:29:58.826Z,4.43
2018-05-13T03:32:27.755Z,5.00
2018-05-13T03:34:56.660Z,4.63
2018-05-13T03:37:25.601Z,4.60
2018-05-13T03:39:54.520Z,5.23
2018-05-13T03:42:23.433Z,5.10
2018-05-13T03:44:52.325Z,4.70
2018-05-13T03:47:21.281Z,4.50
2018-05-13T03:49:50.185Z,4.23
2018-05-13T03:52:19.151Z,4.80
2018-05-13T03:54:48.087Z,6.33
2018-05-13T03:57:17.004Z,11.43
2018-05-13T03:59:45.904Z,8.40
2018-05-13T04:02:14.930Z,6.43
2018-05-13T04:04:43.931Z,6.00
2018-05-13T04:07:12.945Z,5.20
2018-05-13T04:09:41.874Z,4.97
2018-05-13T04:12:10.753Z,5.37
2018-05-13T04:14:39.775Z,5.17
2018-05-13T04:17:08.670Z,4.60
2018-05-13T04:19:37.585Z,5.37
2018-05-13T04:22:06.666Z,4.70
2018-05-13T04:24:35.654Z,5.07
2018-05-13T04:27:04.581Z,5.30
2018-05-13T04:29:33.573Z,5.50
2018-05-13T04:32:02.473Z,4.70
2018-05-13T04:34:31.373Z,5.27
2018-05-13T04:37:00.310Z,5.13
2018-05-13T04:39:29.178Z,5.17
2018-05-13T04:41:58.092Z,4.83
2018-05-13T04:44:27.903Z,5.20
2018-05-13T04:46:57.728Z,5.50
2018-05-13T04:49:26.926Z,5.37
2018-05-13T04:51:57.078Z,5.07
2018-05-13T04:54:27.053Z,5.57
2018-05-13T04:56:58.142Z,6.03
2018-05-13T04:59:28.531Z,5.50
2018-05-13T05:01:57.872Z,5.67
2018-05-13T05:04:30.020Z,5.80
2018-05-13T05:06:59.000Z,5.80
2018-05-13T05:09:27.949Z,5.33
2018-05-13T05:11:56.938Z,5.47
2018-05-13T05:14:25.903Z,5.50
2018-05-13T05:16:54.944Z,5.23
2018-05-13T05:19:23.919Z,5.47
2018-05-13T05:21:53.040Z,6.23
2018-05-13T05:24:21.970Z,5.40
2018-05-13T05:26:50.882Z,5.87
2018-05-13T05:29:19.991Z,6.80
2018-05-13T05:31:48.911Z,6.07
2018-05-13T05:34:17.821Z,6.00
2018-05-13T05:36:46.816Z,5.80
2018-05-13T05:39:15.738Z,6.47
2018-05-13T05:41:44.656Z,5.73
2018-05-13T05:44:13.693Z,6.30
2018-05-13T05:46:42.628Z,5.03
2018-05-13T05:49:11.533Z,5.80
2018-05-13T05:51:40.519Z,5.70
2018-05-13T05:54:09.428Z,5.63
2018-05-13T05:56:38.324Z,6.10
2018-05-13T05:59:07.275Z,6.47
2018-05-13T06:01:36.202Z,6.37
2018-05-13T06:04:05.092Z,6.70
2018-05-13T06:06:34.054Z,5.80
2018-05-13T06:09:02.999Z,6.20
2018-05-13T06:11:31.921Z,5.60
2018-05-13T06:14:00.879Z,6.30
2018-05-13T06:16:29.827Z,6.37
2018-05-13T06:18:58.712Z,5.97
2018-05-13T06:21:27.675Z,5.93
2018-05-13T06:23:56.591Z,6.00
2018-05-13T06:26:25.488Z,5.90
2018-05-13T06:28:54.459Z,5.60
2018-05-13T06:31:23.380Z,5.73
2018-05-13T06:33:52.342Z,5.60
2018-05-13T06:36:21.307Z,5.97
2018-05-13T06:38:50.226Z,5.50
2018-05-13T06:41:19.110Z,5.57
2018-05-13T06:43:48.068Z,5.70
2018-05-13T06:46:17.000Z,5.53
2018-05-13T06:48:45.911Z,5.27
2018-05-13T06:51:14.913Z,5.10
2018-05-13T06:53:43.932Z,5.07
2018-05-13T06:56:12.832Z,5.57
2018-05-13T06:58:41.980Z,5.80
2018-05-13T07:01:10.866Z,5.27
2018-05-13T07:03:39.772Z,5.30
2018-05-13T07:06:08.776Z,4.83
2018-05-13T07:08:37.773Z,5.30
2018-05-13T07:11:06.688Z,5.77
2018-05-13T07:13:35.742Z,4.97
2018-05-13T07:16:04.657Z,4.77
2018-05-13T07:18:33.597Z,4.30
2018-05-13T07:21:02.611Z,4.87
2018-05-13T07:23:31.538Z,4.60
2018-05-13T07:26:00.443Z,4.33
2018-05-13T07:28:29.389Z,4.47
2018-05-13T07:30:58.377Z,4.70
2018-05-13T07:33:27.289Z,4.30
2018-05-13T07:35:56.281Z,4.20
2018-05-13T07:38:25.273Z,4.90
2018-05-13T07:40:54.185Z,4.47
2018-05-13T07:43:23.302Z,3.90
2018-05-13T07:45:52.186Z,3.37
2018-05-13T07:48:21.121Z,4.40
2018-05-13T07:50:50.161Z,4.13
2018-05-13T07:53:19.113Z,4.83
2018-05-13T07:55:48.121Z,4.50
2018-05-13T07:58:17.119Z,4.30
2018-05-13T08:00:46.079Z,4.27
2018-05-13T08:03:15.412Z,4.97
2018-05-13T08:05:44.376Z,3.63
2018-05-13T08:08:13.326Z,4.23
2018-05-13T08:10:42.332Z,3.80
2018-05-13T08:13:11.424Z,4.17
2018-05-13T08:15:40.368Z,4.90
2018-05-13T08:18:09.443Z,4.13
2018-05-13T08:20:38.403Z,3.77
2018-05-13T08:23:07.361Z,3.70
2018-05-13T08:25:36.348Z,4.10
2018-05-13T08:28:05.287Z,4.27
2018-05-13T08:30:34.297Z,3.67
2018-05-13T08:33:03.339Z,3.70
2018-05-13T08:35:32.277Z,4.20
2018-05-13T08:38:01.304Z,4.20
2018-05-13T08:40:30.264Z,3.03
2018-05-13T08:42:59.221Z,3.13
2018-05-13T08:45:28.246Z,2.97
2018-05-13T08:47:57.120Z,2.90
2018-05-13T08:50:26.128Z,2.70
2018-05-13T08:52:55.039Z,3.60
2018-05-13T08:55:23.919Z,3.03
2018-05-13T08:57:52.869Z,3.50
2018-05-13T09:00:21.786Z,3.07
2018-05-13T09:02:50.733Z,3.27
2018-05-13T09:05:19.642Z,2.87
2018-05-13T09:07:48.629Z,2.67
2018-05-13T09:10:17.563Z,3.07
2018-05-13T09:12:46.449Z,2.70
2018-05-13T09:15:15.380Z,2.50
2018-05-13T09:17:44.327Z,3.00
2018-05-13T09:20:13.209Z,2.50
2018-05-13T09:22:42.068Z,2.50
2018-05-13T09:25:11.014Z,2.63
2018-05-13T09:27:40.033Z,3.10
2018-05-13T09:30:09.011Z,3.23
2018-05-13T09:32:37.981Z,2.60
2018-05-13T09:35:06.908Z,2.80
2018-05-13T09:37:35.803Z,2.60
2018-05-13T09:40:04.788Z,2.50
2018-05-13T09:42:33.707Z,2.83
2018-05-13T09:45:02.629Z,2.57
2018-05-13T09:47:31.609Z,2.40
2018-05-13T09:50:00.505Z,2.77
2018-05-13T09:52:29.402Z,2.70
2018-05-13T09:54:58.424Z,2.47
2018-05-13T09:57:27.330Z,2.90
2018-05-13T09:59:56.244Z,2.70
2018-05-13T10:02:25.204Z,2.60
2018-05-13T10:04:54.163Z,2.60
2018-05-13T10:07:23.057Z,2.80
2018-05-13T10:09:52.056Z,2.70
2018-05-13T10:12:21.044Z,3.13
2018-05-13T10:14:50.041Z,2.70
2018-05-13T10:17:18.993Z,3.63
2018-05-13T10:19:47.869Z,3.47
2018-05-13T10:22:16.769Z,3.60
2018-05-13T10:24:45.699Z,4.47
2018-05-13T10:27:14.596Z,3.23
2018-05-13T10:29:43.472Z,3.07
2018-05-13T10:32:12.424Z,2.87
2018-05-13T10:34:41.353Z,3.03
2018-05-13T10:37:10.355Z,3.53
2018-05-13T10:39:39.289Z,2.90
2018-05-13T10:42:08.204Z,3.20
2018-05-13T10:44:37.120Z,2.83
2018-05-13T10:47:06.103Z,3.17
2018-05-13T10:49:35.614Z,2.70
2018-05-13T10:52:04.531Z,3.33
2018-05-13T10:54:33.474Z,3.30
2018-05-13T10:57:02.399Z,2.70
2018-05-13T10:59:31.364Z,3.47
2018-05-13T11:02:00.271Z,3.10
2018-05-13T11:04:29.164Z,3.07
2018-05-13T11:06:58.130Z,3.27
2018-05-13T11:09:27.018Z,3.10
2018-05-13T11:11:59.338Z,3.10
2018-05-13T11:14:28.241Z,3.23
2018-05-13T11:16:57.363Z,2.90
2018-05-13T11:19:26.451Z,3.50
2018-05-13T11:21:55.356Z,3.43
2018-05-13T11:24:24.896Z,3.30
2018-05-13T11:26:57.614Z,3.03
2018-05-13T11:29:29.074Z,2.90
2018-05-13T11:31:59.445Z,3.17
2018-05-13T11:34:28.476Z,3.13
2018-05-13T11:36:57.534Z,3.10
2018-05-13T11:39:26.644Z,2.53
2018-05-13T11:41:56.797Z,3.37
2018-05-13T11:44:25.926Z,3.33
2018-05-13T11:46:54.801Z,3.23
2018-05-13T11:49:23.792Z,3.17
2018-05-13T11:51:52.661Z,3.33
2018-05-13T11:54:21.640Z,3.63
2018-05-13T11:56:50.593Z,3.50
2018-05-13T11:59:19.495Z,3.20
2018-05-13T12:01:48.436Z,3.43
2018-05-13T12:04:17.390Z,4.17
2018-05-13T12:06:46.283Z,3.60
2018-05-13T12:09:15.160Z,3.20
2018-05-13T12:11:44.097Z,3.10
2018-05-13T12:14:13.001Z,2.63
2018-05-13T12:16:41.895Z,2.80
2018-05-13T12:19:10.823Z,3.20
2018-05-13T12:21:39.735Z,3.30
2018-05-13T12:24:08.623Z,3.20
2018-05-13T12:26:37.586Z,2.80
2018-05-13T12:29:06.683Z,2.80
2018-05-13T12:31:35.828Z,3.30
2018-05-13T12:34:06.176Z,2.80
2018-05-13T12:36:35.076Z,3.50
2018-05-13T12:39:04.920Z,3.30
2018-05-13T12:41:33.874Z,3.03
2018-05-13T12:44:02.839Z,3.60
2018-05-13T12:46:31.814Z,3.27
2018-05-13T12:49:00.754Z,3.17
2018-05-13T12:51:29.629Z,3.60
2018-05-13T12:53:59.475Z,2.93
2018-05-13T12:56:28.403Z,3.20
2018-05-13T12:58:57.292Z,3.10
2018-05-13T13:01:26.219Z,3.43
2018-05-13T13:03:55.181Z,3.43
2018-05-13T13:06:25.578Z,3.10
2018-05-13T13:08:54.524Z,3.10
2018-05-13T13:11:23.446Z,3.40
2018-05-13T13:13:52.421Z,3.03
2018-05-13T13:16:21.487Z,3.50
2018-05-13T13:18:50.405Z,2.93
2018-05-13T13:21:19.437Z,2.50
2018-05-13T13:23:48.371Z,2.97
2018-05-13T13:26:17.288Z,3.03
2018-05-13T13:28:46.199Z,3.10
2018-05-13T13:31:15.133Z,3.30
2018-05-13T13:33:44.027Z,3.20
2018-05-13T13:36:12.919Z,2.90
2018-05-13T13:38:42.056Z,3.17
2018-05-13T13:41:11.376Z,3.10
2018-05-13T13:43:41.486Z,3.10
2018-05-13T13:46:10.419Z,3.23
2018-05-13T13:48:39.309Z,4.00
2018-05-13T13:51:08.346Z,3.63
2018-05-13T13:53:37.310Z,3.60
2018-05-13T13:56:06.203Z,4.60
2018-05-13T13:58:35.094Z,3.40
2018-05-13T14:01:04.043Z,3.50
2018-05-13T14:03:32.946Z,3.43
2018-05-13T14:06:02.005Z,3.27
2018-05-13T14:08:30.924Z,3.37
2018-05-13T14:11:00.083Z,3.30
2018-05-13T14:13:29.057Z,3.33
2018-05-13T14:15:58.351Z,3.30
2018-05-13T14:18:27.256Z,3.17
2018-05-13T14:20:58.756Z,2.70
2018-05-13T14:23:27.716Z,2.93
2018-05-13T14:25:56.683Z,3.20
2018-05-13T14:28:25.589Z,3.13
2018-05-13T14:30:54.874Z,3.47
2018-05-13T14:33:23.804Z,3.60
2018-05-13T14:35:52.699Z,3.90
2018-05-13T14:38:21.673Z,3.20
2018-05-13T14:40:50.564Z,3.63
2018-05-13T14:43:19.574Z,3.40
2018-05-13T14:45:48.538Z,3.87
2018-05-13T14:48:17.419Z,2.83
2018-05-13T14:50:46.334Z,3.50
2018-05-13T14:53:16.133Z,3.10
2018-05-13T14:55:45.680Z,3.00
2018-05-13T14:58:14.802Z,3.27
2018-05-13T15:00:44.852Z,3.87
2018-05-13T15:03:14.523Z,4.10
2018-05-13T15:05:44.737Z,4.17
2018-05-13T15:08:14.614Z,3.90
2018-05-13T15:10:44.029Z,3.53
2018-05-13T15:13:12.975Z,3.37
2018-05-13T15:15:48.444Z,3.93
2018-05-13T15:18:17.593Z,3.63
2018-05-13T15:20:47.734Z,3.40
2018-05-13T15:23:16.622Z,2.90
2018-05-13T15:25:45.889Z,3.17
2018-05-13T15:28:14.814Z,3.73
2018-05-13T15:30:43.722Z,3.10
2018-05-13T15:33:15.454Z,3.00
2018-05-13T15:35:44.474Z,3.00
2018-05-13T15:38:13.434Z,3.37
2018-05-13T15:40:42.397Z,3.50
2018-05-13T15:43:11.433Z,3.43
2018-05-13T15:45:40.543Z,3.30
2018-05-13T15:48:09.518Z,3.33
2018-05-13T15:50:38.423Z,3.27
2018-05-13T15:53:07.343Z,3.10
2018-05-13T15:55:36.286Z,3.40
2018-05-13T15:58:05.216Z,3.10
2018-05-13T16:00:34.133Z,3.60
2018-05-13T16:03:03.068Z,3.10
2018-05-13T16:05:31.976Z,3.30
2018-05-13T16:08:00.872Z,3.27
2018-05-13T16:10:29.848Z,4.10
2018-05-13T16:12:58.738Z,3.67
2018-05-13T16:15:27.729Z,2.93
2018-05-13T16:17:57.290Z,3.30
2018-05-13T16:20:26.299Z,3.50
2018-05-13T16:22:55.185Z,3.70
2018-05-13T16:25:24.412Z,3.17
2018-05-13T16:27:53.345Z,2.93
2018-05-13T16:30:22.319Z,3.10
2018-05-13T16:32:51.204Z,4.20
2018-05-13T16:35:20.143Z,4.17
2018-05-13T16:37:49.162Z,3.90
2018-05-13T16:40:18.100Z,3.80
2018-05-13T16:42:46.986Z,4.07
2018-05-13T16:45:15.882Z,3.40
2018-05-13T16:47:44.827Z,4.03
2018-05-13T16:50:13.808Z,3.97
2018-05-13T16:52:42.753Z,4.23
2018-05-13T16:55:11.715Z,3.77
2018-05-13T16:57:40.601Z,3.70
2018-05-13T17:00:09.513Z,3.63
2018-05-13T17:02:38.637Z,3.43
2018-05-13T17:05:07.854Z,3.40
2018-05-13T17:07:36.916Z,4.87
2018-05-13T17:10:05.802Z,5.10
2018-05-13T17:12:34.835Z,4.73
2018-05-13T17:15:04.290Z,3.73
2018-05-13T17:17:33.291Z,3.80
2018-05-13T17:20:05.434Z,3.63
2018-05-13T17:22:37.511Z,3.60
2018-05-13T17:25:08.210Z,3.70
2018-05-13T17:27:37.470Z,3.83
2018-05-13T17:30:07.123Z,3.40
2018-05-13T17:32:36.138Z,3.90
2018-05-13T17:35:05.565Z,3.63
2018-05-13T17:37:34.596Z,3.83
2018-05-13T17:40:03.901Z,3.87
2018-05-13T17:42:33.229Z,3.83
2018-05-13T17:45:02.419Z,3.73
2018-05-13T17:47:32.465Z,4.27
2018-05-13T17:50:01.562Z,3.53
2018-05-13T17:52:30.493Z,3.33
2018-05-13T17:54:59.822Z,3.60
2018-05-13T17:57:28.937Z,3.93
2018-05-13T17:59:57.787Z,3.33
2018-05-13T18:02:26.819Z,3.70
2018-05-13T18:04:56.606Z,3.40
2018-05-13T18:07:25.654Z,3.27
2018-05-13T18:09:54.556Z,3.90
2018-05-13T18:12:23.641Z,3.40
2018-05-13T18:14:52.619Z,3.63
2018-05-13T18:17:21.517Z,3.50
2018-05-13T18:19:50.759Z,3.40
2018-05-13T18:22:19.686Z,3.77
2018-05-13T18:24:51.843Z,3.80
2018-05-13T18:27:20.789Z,3.67
2018-05-13T18:29:49.697Z,3.70
2018-05-13T18:32:18.606Z,3.50
2018-05-13T18:34:47.572Z,3.50
2018-05-13T18:37:16.441Z,3.53
2018-05-13T18:39:45.575Z,3.80
2018-05-13T18:42:14.567Z,3.00
2018-05-13T18:44:43.525Z,3.20
2018-05-13T18:47:12.480Z,3.47
2018-05-13T18:49:41.364Z,3.20
2018-05-13T18:52:10.259Z,3.70
2018-05-13T18:54:39.259Z,3.20
2018-05-13T18:57:08.153Z,3.70
2018-05-13T18:59:37.709Z,3.47
2018-05-13T19:02:06.735Z,3.73
2018-05-13T19:04:35.625Z,3.30
2018-05-13T19:07:04.545Z,3.33
2018-05-13T19:09:33.478Z,3.27
2018-05-13T19:12:02.396Z,3.33
2018-05-13T19:14:31.399Z,3.57
2018-05-13T19:17:00.282Z,4.27
2018-05-13T19:19:29.199Z,3.37
2018-05-13T19:21:58.273Z,3.00
2018-05-13T19:24:27.159Z,3.43
2018-05-13T19:26:56.061Z,3.60
2018-05-13T19:29:25.124Z,3.90
2018-05-13T19:31:53.960Z,3.43
2018-05-13T19:34:22.938Z,3.80
2018-05-13T19:36:51.973Z,3.70
2018-05-13T19:39:20.862Z,3.67
2018-05-13T19:41:49.873Z,4.20
2018-05-13T19:44:21.961Z,4.33
2018-05-13T19:46:51.011Z,4.07
2018-05-13T19:49:20.330Z,3.90
2018-05-13T19:51:49.425Z,4.60
2018-05-13T19:54:18.623Z,4.17
2018-05-13T19:56:47.800Z,4.10
2018-05-13T19:59:16.969Z,3.67
2018-05-13T20:01:45.937Z,3.43
2018-05-13T20:04:14.971Z,3.40
2018-05-13T20:06:44.082Z,3.97
2018-05-13T20:09:13.058Z,3.80
2018-05-13T20:11:43.315Z,5.17
2018-05-13T20:14:14.970Z,5.20
2018-05-13T20:16:46.323Z,4.80
2018-05-13T20:19:15.660Z,4.73
2018-05-13T20:21:44.860Z,4.43
2018-05-13T20:24:14.882Z,4.23
2018-05-13T20:26:44.037Z,4.33
2018-05-13T20:29:12.974Z,4.57
2018-05-13T20:31:41.950Z,4.70
2018-05-13T20:34:10.951Z,5.43
2018-05-13T20:36:40.827Z,4.60
2018-05-13T20:39:10.525Z,5.20
2018-05-13T20:41:39.732Z,5.23
2018-05-13T20:44:08.897Z,5.30
2018-05-13T20:46:38.211Z,5.53
2018-05-13T20:49:07.579Z,5.70
2018-05-13T20:51:36.602Z,5.53
2018-05-13T20:54:06.382Z,5.90
2018-05-13T20:56:35.352Z,5.43
2018-05-13T20:59:04.525Z,5.00
2018-05-13T21:01:33.720Z,5.37
2018-05-13T21:04:02.675Z,5.03
2018-05-13T21:06:31.585Z,5.30
2018-05-13T21:09:00.583Z,4.97
2018-05-13T21:11:29.814Z,4.93
2018-05-13T21:13:58.733Z,4.87
2018-05-13T21:16:27.668Z,5.50
2018-05-13T21:18:59.663Z,5.27
2018-05-13T21:21:28.615Z,5.33
2018-05-13T21:23:58.244Z,5.77
2018-05-13T21:26:27.195Z,5.43
2018-05-13T21:28:56.380Z,5.53
2018-05-13T21:31:25.492Z,4.83
2018-05-13T21:33:54.447Z,4.50
2018-05-13T21:36:23.398Z,4.47
2018-05-13T21:38:52.325Z,4.30
2018-05-13T21:41:21.308Z,4.73
2018-05-13T21:43:50.263Z,4.20
2018-05-13T21:46:19.186Z,4.40
2018-05-13T21:48:48.180Z,4.23
2018-05-13T21:51:17.103Z,5.00
2018-05-13T21:53:46.009Z,4.90
2018-05-13T21:56:15.043Z,5.20
2018-05-13T21:58:44.033Z,4.90
2018-05-13T22:01:12.945Z,4.90
2018-05-13T22:03:41.930Z,4.70
2018-05-13T22:06:10.847Z,5.50
2018-05-13T22:08:39.768Z,5.30
2018-05-13T22:11:08.739Z,5.17
2018-05-13T22:13:37.671Z,4.80
2018-05-13T22:16:06.707Z,5.37
2018-05-13T22:18:35.652Z,5.30
2018-05-13T22:21:04.563Z,4.93
2018-05-13T22:23:33.472Z,5.27
2018-05-13T22:26:02.500Z,4.83
2018-05-13T22:28:31.431Z,5.50
2018-05-13T22:31:00.428Z,5.40
2018-05-13T22:33:29.378Z,4.63
2018-05-13T22:35:58.316Z,4.90
2018-05-13T22:38:27.270Z,5.87
2018-05-13T22:40:56.222Z,4.83
2018-05-13T22:43:25.112Z,5.63
2018-05-13T22:45:54.013Z,5.20
2018-05-13T22:48:22.961Z,5.53
2018-05-13T22:50:51.859Z,6.23
2018-05-13T22:53:20.743Z,4.90
2018-05-13T22:55:52.722Z,5.87
2018-05-13T22:58:21.640Z,5.33
2018-05-13T23:00:50.593Z,5.17
2018-05-13T23:03:19.518Z,5.03
2018-05-13T23:05:48.426Z,4.73
2018-05-13T23:08:17.418Z,5.30
2018-05-13T23:10:46.343Z,5.03
2018-05-13T23:13:15.239Z,4.67
2018-05-13T23:15:44.248Z,4.90
2018-05-13T23:18:13.166Z,4.90
2018-05-13T23:20:42.077Z,5.17
2018-05-13T23:23:11.058Z,4.97
2018-05-13T23:25:39.971Z,4.83
2018-05-13T23:28:08.894Z,4.90
2018-05-13T23:30:37.893Z,5.13
2018-05-13T23:33:06.833Z,4.33
2018-05-13T23:35:35.703Z,5.40
2018-05-13T23:38:04.658Z,4.90
2018-05-13T23:40:33.563Z,5.13
2018-05-13T23:43:02.505Z,5.13
2018-05-13T23:45:31.438Z,5.13
2018-05-13T23:48:00.343Z,4.90
2018-05-13T23:50:29.238Z,5.40
2018-05-13T23:52:58.188Z,5.70
2018-05-13T23:55:27.093Z,5.43
2018-05-13T23:57:56.028Z,5.40
